Terminal Aerodrome Forecast
Issued by NWS Raleigh/Durham, NC

Home | Current Version | Previous Version | Text Only | Print | Product List | Glossary On
Versions: 1 2 3 4 5 6 7 8 9 10 11 12 13 14 15 16 17 18
000
FTUS42 KRAH 202339 CCA
TAFFAY
TAF COR
KFAY 202339Z 2100/2124 VRB04KT P6SM VCSH SCT060 SCT100 BKN250
     FM210100 VRB03KT P6SM FEW060 SCT250
      TEMPO 2109/2112 4SM BR SKC=

USA.gov is the U.S. government's official web portal to all federal, state and local government web resources and services.